createdAt,value
2019-05-02T00:00:59.116Z,16.33
2019-05-02T00:03:28.302Z,15.00
2019-05-02T00:05:56.176Z,15.23
2019-05-02T00:08:24.183Z,14.97
2019-05-02T00:10:52.571Z,14.50
2019-05-02T00:13:20.582Z,14.13
2019-05-02T00:15:49.667Z,13.83
2019-05-02T00:18:18.180Z,14.07
2019-05-02T00:20:46.704Z,13.50
2019-05-02T00:23:14.651Z,12.37
2019-05-02T00:25:42.537Z,12.80
2019-05-02T00:28:12.481Z,13.13
2019-05-02T00:30:40.286Z,12.40
2019-05-02T00:33:10.451Z,13.60
2019-05-02T00:35:40.897Z,12.13
2019-05-02T00:38:08.403Z,12.03
2019-05-02T00:40:36.274Z,13.40
2019-05-02T00:43:04.203Z,12.30
2019-05-02T00:45:32.109Z,12.23
2019-05-02T00:48:05.216Z,11.70
2019-05-02T00:50:36.643Z,12.07
2019-05-02T00:53:07.156Z,10.87
2019-05-02T00:55:35.561Z,10.53
2019-05-02T00:58:03.812Z,10.40
2019-05-02T01:00:37.328Z,10.30
2019-05-02T01:03:05.169Z,10.23
2019-05-02T01:05:33.719Z,10.30
2019-05-02T01:08:03.335Z,9.40
2019-05-02T01:10:31.771Z,9.13
2019-05-02T01:13:00.888Z,9.27
2019-05-02T01:15:28.786Z,9.43
2019-05-02T01:17:56.485Z,9.33
2019-05-02T01:20:27.530Z,8.90
2019-05-02T01:22:53.886Z,8.53
2019-05-02T01:25:21.655Z,9.37
2019-05-02T01:28:18.755Z,9.40
2019-05-02T01:31:13.283Z,9.73
2019-05-02T01:33:48.699Z,8.43
2019-05-02T01:36:22.909Z,7.83
2019-05-02T01:38:50.647Z,9.03
2019-05-02T01:41:18.518Z,7.70
2019-05-02T01:43:46.261Z,8.73
2019-05-02T01:46:17.231Z,8.70
2019-05-02T01:48:45.593Z,8.80
2019-05-02T01:51:14.055Z,8.50
2019-05-02T01:53:41.890Z,8.77
2019-05-02T01:56:09.752Z,8.40
2019-05-02T01:58:42.775Z,8.53
2019-05-02T02:01:10.643Z,9.20
2019-05-02T02:03:40.411Z,8.20
2019-05-02T02:06:10.077Z,9.73
2019-05-02T02:08:38.270Z,8.63
2019-05-02T02:11:06.153Z,8.70
2019-05-02T02:13:36.684Z,8.63
2019-05-02T02:16:05.742Z,8.70
2019-05-02T02:18:37.801Z,10.00
2019-05-02T02:21:25.627Z,10.17
2019-05-02T02:24:02.641Z,9.37
2019-05-02T02:26:30.518Z,9.37
2019-05-02T02:28:58.681Z,9.73
2019-05-02T02:31:26.540Z,10.73
2019-05-02T02:33:55.745Z,10.37
2019-05-02T02:36:31.694Z,10.77
2019-05-02T02:38:53.292Z,11.10
2019-05-02T02:41:21.208Z,11.80
2019-05-02T02:44:23.758Z,12.17
2019-05-02T02:46:52.337Z,12.60
2019-05-02T02:49:24.004Z,12.87
2019-05-02T02:51:49.777Z,11.87
2019-05-02T02:54:17.717Z,12.90
2019-05-02T02:56:45.788Z,12.70
2019-05-02T02:59:19.383Z,13.20
2019-05-02T03:01:43.636Z,13.40
2019-05-02T03:04:12.217Z,13.87
2019-05-02T03:06:45.169Z,13.60
2019-05-02T03:09:10.176Z,13.60
2019-05-02T03:11:48.886Z,13.53
2019-05-02T03:14:22.151Z,13.60
2019-05-02T03:16:50.062Z,13.83
2019-05-02T03:19:21.251Z,13.33
2019-05-02T03:21:54.589Z,14.10
2019-05-02T03:24:24.774Z,13.63
2019-05-02T03:26:55.225Z,12.73
2019-05-02T03:29:22.531Z,13.90
2019-05-02T03:32:11.916Z,13.07
2019-05-02T03:34:23.928Z,13.77
2019-05-02T03:36:51.646Z,14.37
2019-05-02T03:39:19.925Z,13.67
2019-05-02T03:41:47.969Z,14.10
2019-05-02T03:44:24.687Z,14.27
2019-05-02T03:46:46.364Z,14.67
2019-05-02T03:49:14.337Z,14.43
2019-05-02T03:51:42.109Z,14.30
2019-05-02T03:54:10.622Z,14.93
2019-05-02T03:56:44.489Z,13.77
2019-05-02T03:59:08.541Z,14.33
2019-05-02T04:01:41.333Z,14.17
2019-05-02T04:04:06.532Z,15.50
2019-05-02T04:06:34.353Z,14.87
2019-05-02T04:09:02.529Z,14.20
2019-05-02T04:11:38.401Z,14.83
2019-05-02T04:14:00.512Z,14.77
2019-05-02T04:16:29.419Z,15.50
2019-05-02T04:18:58.476Z,15.67
2019-05-02T04:21:26.736Z,15.10
2019-05-02T04:24:07.576Z,15.33
2019-05-02T04:26:25.958Z,16.80
2019-05-02T04:28:53.881Z,16.50
2019-05-02T04:31:24.630Z,18.27
2019-05-02T04:33:54.123Z,18.00
2019-05-02T04:36:21.933Z,18.17
2019-05-02T04:38:52.475Z,19.57
2019-05-02T04:41:28.827Z,18.50
2019-05-02T04:43:55.791Z,20.33
2019-05-02T04:46:27.269Z,20.30
2019-05-02T04:48:52.741Z,20.60
2019-05-02T04:51:20.401Z,20.50
2019-05-02T04:53:49.887Z,21.07
2019-05-02T04:56:18.645Z,21.27
2019-05-02T04:58:49.492Z,21.37
2019-05-02T05:01:16.585Z,21.90
2019-05-02T05:03:49.128Z,22.00
2019-05-02T05:06:14.163Z,22.67
2019-05-02T05:08:52.781Z,22.53
2019-05-02T05:11:24.703Z,23.03
2019-05-02T05:13:52.382Z,23.63
2019-05-02T05:16:19.845Z,25.07
2019-05-02T05:18:49.309Z,26.40
2019-05-02T05:21:17.937Z,26.10
2019-05-02T05:24:08.437Z,26.63
2019-05-02T05:26:41.085Z,27.93
2019-05-02T05:29:08.256Z,28.80
2019-05-02T05:31:38.177Z,28.77
2019-05-02T05:34:07.806Z,30.63
2019-05-02T05:36:37.497Z,30.30
2019-05-02T05:39:08.583Z,30.03
2019-05-02T05:41:37.812Z,29.67
2019-05-02T05:44:07.610Z,30.57
2019-05-02T05:46:40.977Z,30.60
2019-05-02T05:49:04.971Z,31.70
2019-05-02T05:51:32.747Z,32.37
2019-05-02T05:54:03.099Z,33.37
2019-05-02T05:56:32.559Z,31.37
2019-05-02T05:59:00.393Z,31.37
2019-05-02T06:01:34.445Z,30.37
2019-05-02T06:03:58.214Z,31.53
2019-05-02T06:06:27.487Z,31.20
2019-05-02T06:08:55.575Z,31.30
2019-05-02T06:11:23.367Z,29.47
2019-05-02T06:13:51.183Z,31.07
2019-05-02T06:16:18.968Z,29.60
2019-05-02T06:18:47.170Z,30.00
2019-05-02T06:21:17.182Z,29.10
2019-05-02T06:23:45.149Z,29.23
2019-05-02T06:26:14.049Z,28.50
2019-05-02T06:28:43.264Z,28.87
2019-05-02T06:31:11.237Z,29.30
2019-05-02T06:33:39.557Z,29.13
2019-05-02T06:36:07.427Z,29.40
2019-05-02T06:38:35.934Z,28.70
2019-05-02T06:41:03.911Z,28.23
2019-05-02T06:43:31.615Z,29.03
2019-05-02T06:45:59.476Z,30.23
2019-05-02T06:48:27.904Z,28.67
2019-05-02T06:50:56.793Z,28.33
2019-05-02T06:53:24.673Z,29.83
2019-05-02T06:55:52.553Z,28.63
2019-05-02T06:58:20.461Z,28.57
2019-05-02T07:00:57.453Z,27.87
2019-05-02T07:03:18.146Z,27.83
2019-05-02T07:05:48.865Z,27.97
2019-05-02T07:08:15.642Z,27.57
2019-05-02T07:10:44.976Z,28.70
2019-05-02T07:13:15.068Z,27.07
2019-05-02T07:16:36.822Z,26.83
2019-05-02T07:18:50.910Z,26.23
2019-05-02T07:21:23.250Z,28.23
2019-05-02T07:23:52.984Z,26.93
2019-05-02T07:26:21.107Z,26.13
2019-05-02T07:28:48.267Z,25.13
2019-05-02T07:31:16.238Z,25.13
2019-05-02T07:33:45.451Z,23.93
2019-05-02T07:36:13.333Z,23.77
2019-05-02T07:38:42.599Z,23.77
2019-05-02T07:41:10.512Z,23.87
2019-05-02T07:43:41.273Z,24.37
2019-05-02T07:46:09.110Z,23.37
2019-05-02T07:48:36.856Z,23.50
2019-05-02T07:51:04.756Z,23.43
2019-05-02T07:53:32.674Z,21.90
2019-05-02T07:56:00.852Z,23.27
2019-05-02T07:58:29.200Z,22.30
2019-05-02T08:00:56.925Z,22.07
2019-05-02T08:03:29.447Z,22.77
2019-05-02T08:05:58.149Z,22.13
2019-05-02T08:08:25.024Z,22.17
2019-05-02T08:11:01.336Z,24.17
2019-05-02T08:13:23.447Z,22.47
2019-05-02T08:15:52.388Z,22.67
2019-05-02T08:18:20.385Z,22.47
2019-05-02T08:20:51.112Z,22.20
2019-05-02T08:23:20.623Z,20.83
2019-05-02T08:25:47.506Z,20.87
2019-05-02T08:28:20.508Z,20.33
2019-05-02T08:30:52.042Z,22.63
2019-05-02T08:33:20.013Z,20.57
2019-05-02T08:35:47.855Z,20.20
2019-05-02T08:38:17.847Z,20.30
2019-05-02T08:40:47.871Z,21.33
2019-05-02T08:43:15.085Z,21.30
2019-05-02T08:45:46.197Z,19.87
2019-05-02T08:48:14.150Z,20.60
2019-05-02T08:50:41.863Z,19.47
2019-05-02T08:53:13.902Z,20.37
2019-05-02T08:55:41.240Z,20.13
2019-05-02T08:58:14.384Z,18.43
2019-05-02T09:00:39.571Z,17.57
2019-05-02T09:03:07.648Z,16.07
2019-05-02T09:05:36.403Z,16.57
2019-05-02T09:08:09.296Z,15.30
2019-05-02T09:10:37.166Z,16.10
2019-05-02T09:13:04.838Z,16.53
2019-05-02T09:15:35.213Z,16.93
2019-05-02T09:18:02.830Z,15.97
2019-05-02T09:20:31.947Z,15.50
2019-05-02T09:23:01.735Z,15.80
2019-05-02T09:25:29.740Z,16.10
2019-05-02T09:27:57.433Z,15.13
2019-05-02T09:30:25.966Z,16.57
2019-05-02T09:32:57.054Z,14.43
2019-05-02T09:35:24.314Z,15.53
2019-05-02T09:37:52.327Z,16.23
2019-05-02T09:40:22.277Z,16.33
2019-05-02T09:42:53.365Z,15.63
2019-05-02T09:45:27.915Z,14.30
2019-05-02T09:48:04.549Z,14.50
2019-05-02T09:50:31.232Z,14.97
2019-05-02T09:52:56.482Z,15.20
2019-05-02T09:55:24.404Z,15.00
2019-05-02T09:57:52.158Z,14.60
2019-05-02T10:00:44.081Z,14.80
2019-05-02T10:03:12.900Z,13.77
2019-05-02T10:05:43.047Z,15.20
2019-05-02T10:08:13.719Z,13.57
2019-05-02T10:10:45.656Z,13.53
2019-05-02T10:13:12.184Z,76.33
2019-05-02T10:15:42.095Z,17.87
2019-05-02T10:18:12.055Z,14.07
2019-05-02T10:20:41.843Z,15.70
2019-05-02T10:23:12.105Z,15.77
2019-05-02T10:25:46.009Z,15.37
2019-05-02T10:28:10.279Z,15.70
2019-05-02T10:30:38.770Z,15.67
2019-05-02T10:33:06.771Z,15.63
2019-05-02T10:35:40.669Z,12.80
2019-05-02T10:38:09.378Z,15.00
2019-05-02T10:40:37.930Z,14.70
2019-05-02T10:43:05.782Z,12.50
2019-05-02T10:45:34.017Z,12.43
2019-05-02T10:48:02.263Z,11.43
2019-05-02T10:50:36.197Z,12.63
2019-05-02T10:53:11.286Z,11.93
2019-05-02T10:55:34.185Z,11.80
2019-05-02T10:58:02.271Z,11.90
2019-05-02T11:00:34.615Z,11.50
2019-05-02T11:03:17.962Z,11.27
2019-05-02T11:05:48.599Z,11.03
2019-05-02T11:08:16.444Z,10.27
2019-05-02T11:10:45.151Z,9.30
2019-05-02T11:13:32.329Z,8.90
2019-05-02T11:16:22.637Z,10.13
2019-05-02T11:19:05.108Z,10.10
2019-05-02T11:21:53.497Z,9.33
2019-05-02T11:24:25.454Z,9.70
2019-05-02T11:26:53.450Z,10.67
2019-05-02T11:29:22.760Z,11.23
2019-05-02T11:31:52.080Z,11.13
2019-05-02T11:34:21.599Z,10.90
2019-05-02T11:36:49.734Z,9.50
2019-05-02T11:39:26.305Z,10.40
2019-05-02T11:41:47.272Z,8.87
2019-05-02T11:44:14.956Z,8.87
2019-05-02T11:46:46.788Z,9.33
2019-05-02T11:49:13.359Z,8.80
2019-05-02T11:51:42.155Z,9.50
2019-05-02T11:54:10.202Z,8.23
2019-05-02T11:56:51.322Z,8.57
2019-05-02T11:59:22.595Z,8.90
2019-05-02T12:02:03.327Z,8.97
2019-05-02T12:04:32.611Z,8.70
2019-05-02T12:07:02.760Z,9.30
2019-05-02T12:09:31.985Z,9.73
2019-05-02T12:11:59.884Z,9.77
2019-05-02T12:14:32.112Z,9.03
2019-05-02T12:16:57.240Z,9.77
2019-05-02T12:19:25.215Z,10.80
2019-05-02T12:21:55.522Z,9.40
2019-05-02T12:24:23.399Z,9.73
2019-05-02T12:26:52.863Z,9.70
2019-05-02T12:29:21.801Z,10.23
2019-05-02T12:31:54.709Z,8.77
2019-05-02T12:34:21.706Z,9.27
2019-05-02T12:36:49.779Z,9.97
2019-05-02T12:39:17.669Z,9.53
2019-05-02T12:41:45.761Z,9.30
2019-05-02T12:44:13.989Z,8.93
2019-05-02T12:46:42.391Z,9.93
2019-05-02T12:49:22.575Z,9.53
2019-05-02T12:51:40.176Z,9.67
2019-05-02T12:54:07.941Z,9.43
2019-05-02T12:56:36.240Z,9.00
2019-05-02T12:59:05.161Z,9.63
2019-05-02T13:01:33.316Z,10.23
2019-05-02T13:04:09.136Z,8.70
2019-05-02T13:06:37.307Z,9.20
2019-05-02T13:09:08.658Z,10.57
2019-05-02T13:11:45.982Z,8.80
2019-05-02T13:14:19.126Z,9.47
2019-05-02T13:16:43.966Z,10.07
2019-05-02T13:19:12.045Z,10.27
2019-05-02T13:21:50.197Z,9.73
2019-05-02T13:24:36.715Z,8.63
2019-05-02T13:27:08.916Z,9.17
2019-05-02T13:29:38.734Z,9.40
2019-05-02T13:32:35.477Z,9.33
2019-05-02T13:35:23.054Z,9.90
2019-05-02T13:37:54.035Z,9.07
2019-05-02T13:40:29.626Z,8.90
2019-05-02T13:42:57.619Z,8.10
2019-05-02T13:45:35.184Z,8.27
2019-05-02T13:48:02.968Z,8.00
2019-05-02T13:50:31.725Z,6.63
2019-05-02T13:52:59.512Z,7.23
2019-05-02T13:55:32.820Z,7.53
2019-05-02T13:58:02.319Z,6.60
2019-05-02T14:00:44.596Z,7.13
2019-05-02T14:03:12.603Z,6.90
2019-05-02T14:05:49.186Z,5.87
2019-05-02T14:08:36.793Z,7.13
2019-05-02T14:11:21.646Z,7.27
2019-05-02T14:13:49.347Z,6.30
2019-05-02T14:16:17.252Z,6.40
2019-05-02T14:18:44.936Z,7.13
2019-05-02T14:21:12.694Z,7.43
2019-05-02T14:23:42.038Z,7.77
2019-05-02T14:26:11.694Z,7.43
2019-05-02T14:28:39.535Z,7.43
2019-05-02T14:31:11.891Z,8.40
2019-05-02T14:33:42.360Z,7.67
2019-05-02T14:36:11.681Z,8.27
2019-05-02T14:38:41.726Z,7.90
2019-05-02T14:41:14.472Z,8.17
2019-05-02T14:43:57.036Z,8.80
2019-05-02T14:46:34.450Z,8.00
2019-05-02T14:48:55.578Z,8.07
2019-05-02T14:51:27.556Z,8.00
2019-05-02T14:53:57.493Z,6.93
2019-05-02T14:56:33.024Z,7.63
2019-05-02T14:59:02.634Z,6.90
2019-05-02T15:01:32.140Z,7.67
2019-05-02T15:04:04.059Z,7.03
2019-05-02T15:06:33.000Z,7.60
2019-05-02T15:09:02.261Z,6.80
2019-05-02T15:11:32.219Z,6.70
2019-05-02T15:13:59.301Z,6.53
2019-05-02T15:16:39.567Z,6.23
2019-05-02T15:18:57.180Z,5.70
2019-05-02T15:21:32.398Z,6.53
2019-05-02T15:24:01.714Z,5.67
2019-05-02T15:26:31.268Z,5.33
2019-05-02T15:28:59.204Z,5.93
2019-05-02T15:31:33.764Z,5.33
2019-05-02T15:34:13.581Z,5.00
2019-05-02T15:36:45.682Z,4.80
2019-05-02T15:41:44.712Z,5.13
2019-05-02T15:44:12.592Z,5.53
2019-05-02T15:46:42.443Z,5.00
2019-05-02T15:49:12.191Z,5.17
2019-05-02T15:51:45.051Z,4.87
2019-05-02T15:54:09.696Z,4.60
2019-05-02T15:57:00.464Z,5.70
2019-05-02T15:59:37.562Z,5.73
2019-05-02T16:02:07.606Z,6.10
2019-05-02T16:04:36.598Z,5.80
2019-05-02T16:07:08.222Z,4.90
2019-05-02T16:09:34.478Z,4.70
2019-05-02T16:12:03.071Z,4.80
2019-05-02T16:14:35.725Z,4.70
2019-05-02T16:17:03.807Z,4.83
2019-05-02T16:19:34.093Z,4.80
2019-05-02T16:22:14.955Z,5.50
2019-05-02T16:24:43.869Z,5.80
2019-05-02T16:27:16.406Z,5.80
2019-05-02T16:29:42.186Z,5.80
2019-05-02T16:32:31.041Z,5.67
2019-05-02T16:35:12.153Z,5.67
2019-05-02T16:37:33.665Z,5.73
2019-05-02T16:40:02.517Z,5.60
2019-05-02T16:42:30.440Z,6.30
2019-05-02T16:44:58.275Z,5.63
2019-05-02T16:47:26.162Z,6.23
2019-05-02T16:49:56.401Z,5.70
2019-05-02T16:52:24.029Z,5.43
2019-05-02T16:54:52.668Z,5.53
2019-05-02T16:57:22.146Z,5.07
2019-05-02T16:59:56.172Z,4.80
2019-05-02T17:02:21.768Z,6.63
2019-05-02T17:04:52.117Z,5.43
2019-05-02T17:07:26.625Z,6.00
2019-05-02T17:10:20.076Z,6.27
2019-05-02T17:12:55.025Z,6.00
2019-05-02T17:15:34.953Z,6.60
2019-05-02T17:18:04.969Z,5.80
2019-05-02T17:20:31.962Z,6.63
2019-05-02T17:23:06.638Z,6.70
2019-05-02T17:25:29.851Z,6.10
2019-05-02T17:28:04.023Z,5.80
2019-05-02T17:30:31.473Z,6.87
2019-05-02T17:32:57.092Z,6.30
2019-05-02T17:35:25.187Z,5.97
2019-05-02T17:37:59.628Z,6.37
2019-05-02T17:40:27.556Z,6.13
2019-05-02T17:42:57.075Z,6.07
2019-05-02T17:45:26.992Z,5.80
2019-05-02T17:47:54.770Z,6.13
2019-05-02T17:50:42.370Z,6.40
2019-05-02T17:53:11.633Z,6.10
2019-05-02T17:55:40.797Z,6.47
2019-05-02T17:58:12.531Z,5.60
2019-05-02T18:00:43.040Z,5.33
2019-05-02T18:03:12.435Z,5.53
2019-05-02T18:05:41.879Z,5.30
2019-05-02T18:08:14.261Z,5.33
2019-05-02T18:10:41.814Z,5.03
2019-05-02T18:13:09.728Z,5.13
2019-05-02T18:15:37.569Z,4.77
2019-05-02T18:18:06.772Z,4.97
2019-05-02T18:20:37.244Z,5.60
2019-05-02T18:23:06.072Z,5.60
2019-05-02T18:25:34.067Z,5.87
2019-05-02T18:28:02.450Z,5.83
2019-05-02T18:30:30.391Z,5.63
2019-05-02T18:33:03.412Z,5.47
2019-05-02T18:35:27.883Z,5.50
2019-05-02T18:37:55.619Z,6.40
2019-05-02T18:40:27.786Z,5.33
2019-05-02T18:42:56.512Z,5.60
2019-05-02T18:45:28.417Z,5.10
2019-05-02T18:48:01.060Z,5.23
2019-05-02T18:50:36.927Z,5.33
2019-05-02T18:53:06.269Z,5.80
2019-05-02T18:55:34.726Z,5.67
2019-05-02T18:58:05.399Z,5.60
2019-05-02T19:00:38.364Z,6.23
2019-05-02T19:03:07.644Z,5.87
2019-05-02T19:05:33.739Z,5.70
2019-05-02T19:08:02.444Z,5.90
2019-05-02T19:10:32.362Z,6.37
2019-05-02T19:13:04.033Z,6.07
2019-05-02T19:15:34.356Z,5.40
2019-05-02T19:17:59.823Z,5.50
2019-05-02T19:21:06.815Z,6.17
2019-05-02T19:23:35.353Z,6.73
2019-05-02T19:26:10.115Z,6.80
2019-05-02T19:28:53.212Z,6.77
2019-05-02T19:31:23.152Z,6.73
2019-05-02T19:33:52.702Z,6.23
2019-05-02T19:36:24.391Z,7.07
2019-05-02T19:38:52.479Z,7.97
2019-05-02T19:41:22.197Z,8.00
2019-05-02T19:43:51.445Z,7.70
2019-05-02T19:46:24.563Z,8.47
2019-05-02T19:48:49.646Z,8.07
2019-05-02T19:51:20.171Z,9.03
2019-05-02T19:53:53.496Z,10.73
2019-05-02T19:56:17.032Z,10.37
2019-05-02T19:58:46.721Z,11.00
2019-05-02T20:01:17.380Z,11.80
2019-05-02T20:03:44.654Z,11.77
2019-05-02T20:06:12.913Z,12.17
2019-05-02T20:08:42.005Z,11.53
2019-05-02T20:11:10.026Z,12.67
2019-05-02T20:13:37.993Z,12.40
2019-05-02T20:16:16.301Z,13.20
2019-05-02T20:18:47.150Z,12.63
2019-05-02T20:21:37.890Z,13.03
2019-05-02T20:24:09.219Z,13.03
2019-05-02T20:26:51.712Z,13.10
2019-05-02T20:29:24.440Z,12.13
2019-05-02T20:31:52.185Z,13.80
2019-05-02T20:34:22.098Z,12.83
2019-05-02T20:36:51.858Z,12.43
2019-05-02T20:39:19.788Z,12.13
2019-05-02T20:41:47.604Z,12.37
2019-05-02T20:44:15.498Z,12.70
2019-05-02T20:46:43.219Z,13.10
2019-05-02T20:49:12.837Z,13.27
2019-05-02T20:51:42.389Z,12.57
2019-05-02T20:54:12.378Z,12.50
2019-05-02T20:56:40.249Z,13.90
2019-05-02T20:59:08.171Z,12.47
2019-05-02T21:01:36.004Z,13.17
2019-05-02T21:04:03.977Z,13.40
2019-05-02T21:06:44.206Z,12.60
2019-05-02T21:09:33.573Z,13.80
2019-05-02T21:12:04.083Z,13.77
2019-05-02T21:14:34.806Z,14.17
2019-05-02T21:17:03.029Z,13.00
2019-05-02T21:19:32.378Z,14.10
2019-05-02T21:22:04.674Z,14.67
2019-05-02T21:24:32.810Z,13.83
2019-05-02T21:27:01.919Z,14.77
2019-05-02T21:29:32.027Z,13.83
2019-05-02T21:31:59.644Z,14.10
2019-05-02T21:34:27.556Z,14.27
2019-05-02T21:36:55.366Z,14.00
2019-05-02T21:39:23.136Z,14.57
2019-05-02T21:41:51.685Z,13.60
2019-05-02T21:44:19.715Z,13.93
2019-05-02T21:46:47.621Z,14.30
2019-05-02T21:49:35.049Z,14.20
2019-05-02T21:52:18.818Z,14.43
2019-05-02T21:54:56.165Z,13.37
2019-05-02T21:57:23.917Z,13.40
2019-05-02T21:59:52.726Z,14.27
2019-05-02T22:02:22.544Z,13.07
2019-05-02T22:04:50.589Z,13.77
2019-05-02T22:07:17.959Z,13.60
2019-05-02T22:09:45.721Z,13.97
2019-05-02T22:12:13.552Z,14.97
2019-05-02T22:14:42.224Z,15.63
2019-05-02T22:17:10.413Z,13.30
2019-05-02T22:19:38.316Z,14.33
2019-05-02T22:22:06.127Z,13.93
2019-05-02T22:24:33.998Z,14.87
2019-05-02T22:27:02.022Z,13.70
2019-05-02T22:29:29.826Z,14.67
2019-05-02T22:31:57.588Z,16.77
2019-05-02T22:34:25.355Z,16.20
2019-05-02T22:36:54.374Z,16.60
2019-05-02T22:39:53.665Z,16.40
2019-05-02T22:42:21.925Z,16.93
2019-05-02T22:44:49.708Z,16.90
2019-05-02T22:47:17.648Z,17.17
2019-05-02T22:49:45.472Z,16.70
2019-05-02T22:52:14.402Z,18.23
2019-05-02T22:54:42.433Z,17.77
2019-05-02T22:57:11.622Z,18.63
2019-05-02T22:59:42.132Z,16.67
2019-05-02T23:02:09.785Z,18.53
2019-05-02T23:04:37.500Z,18.27
2019-05-02T23:07:05.361Z,17.90
2019-05-02T23:09:33.280Z,17.63
2019-05-02T23:12:02.814Z,17.97
2019-05-02T23:14:32.509Z,17.50
2019-05-02T23:17:02.064Z,18.03
2019-05-02T23:19:47.243Z,18.40
2019-05-02T23:22:24.985Z,17.53
2019-05-02T23:25:11.649Z,17.30
2019-05-02T23:27:51.777Z,17.00
2019-05-02T23:30:22.547Z,17.73
2019-05-02T23:32:51.672Z,16.20
2019-05-02T23:35:19.726Z,16.00
2019-05-02T23:37:47.462Z,16.27
2019-05-02T23:40:15.466Z,15.53
2019-05-02T23:42:43.331Z,15.50
2019-05-02T23:45:12.159Z,16.20
2019-05-02T23:47:42.056Z,15.17
2019-05-02T23:50:12.146Z,15.63
2019-05-02T23:52:40.184Z,16.07
2019-05-02T23:55:08.109Z,16.37
2019-05-02T23:57:35.855Z,16.13
